createdAt,value
2023-02-22T00:02:10.786Z,9.40
2023-02-22T00:08:04.607Z,9.30
2023-02-22T00:13:58.053Z,9.30
2023-02-22T00:19:52.850Z,9.30
2023-02-22T00:25:46.584Z,9.30
2023-02-22T00:31:40.593Z,9.30
2023-02-22T00:37:36.130Z,9.20
2023-02-22T00:43:29.090Z,9.30
2023-02-22T00:49:22.154Z,9.30
2023-02-22T00:55:20.590Z,9.30
2023-02-22T01:01:14.644Z,9.20
2023-02-22T01:07:08.446Z,9.20
2023-02-22T01:13:08.361Z,9.20
2023-02-22T01:19:02.267Z,9.30
2023-02-22T01:24:56.052Z,9.20
2023-02-22T01:30:51.565Z,9.20
2023-02-22T01:36:45.157Z,9.30
2023-02-22T01:42:38.812Z,9.30
2023-02-22T01:48:39.272Z,9.20
2023-02-22T01:54:36.863Z,9.20
2023-02-22T02:00:31.062Z,9.30
2023-02-22T02:06:27.681Z,9.30
2023-02-22T02:12:23.222Z,9.20
2023-02-22T02:18:17.898Z,9.30
2023-02-22T02:24:50.668Z,9.30
2023-02-22T02:31:21.335Z,9.20
2023-02-22T02:37:23.147Z,9.30
2023-02-22T02:43:23.215Z,9.20
2023-02-22T02:49:22.843Z,9.30
2023-02-22T02:55:19.109Z,9.30
2023-02-22T03:01:15.468Z,9.30
2023-02-22T03:07:39.396Z,9.30
2023-02-22T03:13:41.365Z,9.30
2023-02-22T03:19:39.714Z,9.20
2023-02-22T03:25:39.971Z,9.20
2023-02-22T03:31:40.655Z,9.30
2023-02-22T03:37:37.911Z,9.20
2023-02-22T03:43:36.151Z,9.20
2023-02-22T03:49:38.780Z,9.20
2023-02-22T03:55:33.000Z,9.20
2023-02-22T04:01:26.885Z,9.20
2023-02-22T04:07:21.767Z,9.20
2023-02-22T04:13:16.307Z,9.20
2023-02-22T04:19:13.621Z,9.10
2023-02-22T04:25:09.535Z,9.30
2023-02-22T04:31:03.397Z,9.20
2023-02-22T04:36:56.594Z,9.20
2023-02-22T04:42:51.197Z,9.30
2023-02-22T04:48:45.062Z,9.20
2023-02-22T04:54:40.431Z,9.20
2023-02-22T05:00:34.937Z,9.30
2023-02-22T05:06:29.852Z,9.20
2023-02-22T05:12:23.310Z,9.20
2023-02-22T05:18:17.719Z,9.10
2023-02-22T05:24:10.699Z,9.20
2023-02-22T05:30:04.297Z,9.30
2023-02-22T05:35:58.795Z,9.20
2023-02-22T05:41:52.338Z,9.20
2023-02-22T05:47:45.889Z,9.20
2023-02-22T05:53:40.329Z,9.20
2023-02-22T05:59:33.378Z,9.20
2023-02-22T06:05:27.596Z,9.20
2023-02-22T06:11:22.463Z,9.20
2023-02-22T06:17:19.281Z,9.20
2023-02-22T06:23:13.789Z,9.20
2023-02-22T06:29:08.725Z,9.10
2023-02-22T06:35:01.834Z,9.10
2023-02-22T06:40:55.648Z,9.10
2023-02-22T06:46:52.267Z,9.10
2023-02-22T06:52:48.927Z,9.10
2023-02-22T06:58:41.985Z,9.20
2023-02-22T07:04:37.214Z,9.10
2023-02-22T07:10:32.849Z,9.20
2023-02-22T07:16:26.309Z,9.10
2023-02-22T07:22:21.116Z,9.10
2023-02-22T07:28:14.599Z,9.10
2023-02-22T07:34:07.712Z,9.20
2023-02-22T07:40:02.149Z,9.10
2023-02-22T07:45:57.673Z,9.20
2023-02-22T07:51:50.844Z,9.10
2023-02-22T07:57:46.824Z,9.20
2023-02-22T08:03:39.856Z,9.20
2023-02-22T08:09:32.923Z,9.20
2023-02-22T08:15:31.274Z,9.20
2023-02-22T08:21:24.274Z,9.20
2023-02-22T08:27:17.867Z,9.20
2023-02-22T08:33:14.755Z,9.30
2023-02-22T08:39:08.231Z,9.30
2023-02-22T08:45:01.290Z,9.40
2023-02-22T08:50:57.260Z,9.40
2023-02-22T08:56:50.382Z,9.50
2023-02-22T09:02:43.568Z,9.50
2023-02-22T09:08:37.999Z,9.50
2023-02-22T09:14:31.574Z,9.50
2023-02-22T09:20:26.060Z,9.50
2023-02-22T09:26:20.553Z,9.50
2023-02-22T09:32:13.724Z,9.50
2023-02-22T09:38:07.321Z,9.40
2023-02-22T09:44:17.003Z,9.50
2023-02-22T09:50:16.947Z,9.50
2023-02-22T09:56:12.160Z,9.40
2023-02-22T10:02:22.526Z,9.40
2023-02-22T10:08:19.369Z,9.30
2023-02-22T10:14:36.154Z,9.50
2023-02-22T10:20:43.617Z,9.50
2023-02-22T10:26:41.787Z,9.60
2023-02-22T10:32:43.150Z,9.50
2023-02-22T10:38:39.141Z,9.60
2023-02-22T10:44:32.204Z,9.60
2023-02-22T10:50:26.377Z,9.70
2023-02-22T10:56:22.371Z,9.90
2023-02-22T11:02:21.696Z,10.10
2023-02-22T11:08:26.561Z,10.40
2023-02-22T11:14:29.667Z,11.50
2023-02-22T11:20:25.517Z,12.40
2023-02-22T11:26:20.707Z,12.60
2023-02-22T11:32:21.201Z,13.00
2023-02-22T11:38:21.245Z,12.60
2023-02-22T11:44:23.596Z,13.20
2023-02-22T11:50:28.244Z,12.70
2023-02-22T11:56:37.706Z,12.20
2023-02-22T12:02:56.723Z,12.20
2023-02-22T12:09:01.619Z,12.80
2023-02-22T12:15:03.083Z,13.60
2023-02-22T12:21:00.300Z,14.10
2023-02-22T12:26:58.721Z,13.80
2023-02-22T12:32:55.083Z,13.90
2023-02-22T12:38:53.502Z,13.70
2023-02-22T12:44:53.723Z,13.70
2023-02-22T12:50:50.181Z,14.10
2023-02-22T12:56:50.603Z,14.00
2023-02-22T13:02:51.085Z,13.80
2023-02-22T13:08:54.362Z,13.90
2023-02-22T13:15:00.463Z,13.80
2023-02-22T13:21:02.071Z,13.40
2023-02-22T13:27:00.667Z,13.10
2023-02-22T13:33:16.037Z,12.80
2023-02-22T13:39:35.071Z,12.60
2023-02-22T13:45:48.835Z,12.50
2023-02-22T13:51:49.780Z,12.40
2023-02-22T13:57:48.604Z,12.40
2023-02-22T14:03:42.087Z,12.30
2023-02-22T14:09:48.250Z,12.30
2023-02-22T14:16:15.666Z,12.30
2023-02-22T14:22:12.978Z,12.20
2023-02-22T14:28:09.086Z,12.10
2023-02-22T14:34:11.972Z,12.00
2023-02-22T14:40:15.923Z,12.00
2023-02-22T14:46:17.236Z,11.90
2023-02-22T14:52:22.584Z,11.90
2023-02-22T14:58:22.337Z,11.80
2023-02-22T15:04:20.220Z,11.80
2023-02-22T15:10:22.169Z,11.70
2023-02-22T15:16:16.972Z,11.70
2023-02-22T15:22:21.231Z,11.70
2023-02-22T15:28:16.573Z,11.60
2023-02-22T15:34:24.414Z,11.50
2023-02-22T15:40:20.691Z,11.50
2023-02-22T15:46:14.278Z,11.50
2023-02-22T15:52:20.423Z,11.40
2023-02-22T15:58:22.297Z,11.40
2023-02-22T16:04:19.410Z,11.30
2023-02-22T16:10:29.821Z,11.20
2023-02-22T16:16:27.850Z,11.20
2023-02-22T16:22:39.291Z,11.20
2023-02-22T16:28:35.627Z,11.10
2023-02-22T16:34:28.997Z,11.10
2023-02-22T16:40:25.889Z,11.00
2023-02-22T16:46:20.992Z,11.00
2023-02-22T16:52:14.151Z,11.00
2023-02-22T16:58:14.117Z,10.90
2023-02-22T17:04:16.216Z,10.90
2023-02-22T17:10:09.842Z,10.80
2023-02-22T17:16:03.538Z,10.80
2023-02-22T17:21:59.132Z,10.80
2023-02-22T17:27:52.592Z,10.80
2023-02-22T17:33:46.328Z,10.70
2023-02-22T17:39:41.087Z,10.70
2023-02-22T17:45:34.575Z,10.70
2023-02-22T17:51:28.072Z,10.70
2023-02-22T17:57:22.708Z,10.70
2023-02-22T18:03:21.922Z,10.60
2023-02-22T18:09:17.627Z,10.60
2023-02-22T18:15:12.790Z,10.50
2023-02-22T18:21:06.343Z,10.50
2023-02-22T18:26:59.644Z,10.60
2023-02-22T18:32:54.390Z,10.50
2023-02-22T18:38:47.980Z,10.50
2023-02-22T18:44:41.315Z,10.40
2023-02-22T18:50:35.825Z,10.40
2023-02-22T18:56:30.701Z,10.40
2023-02-22T19:02:25.440Z,10.40
2023-02-22T19:08:20.441Z,10.30
2023-02-22T19:14:14.667Z,10.30
2023-02-22T19:20:10.037Z,10.40
2023-02-22T19:26:05.186Z,10.30
2023-02-22T19:31:58.647Z,10.30
2023-02-22T19:37:54.170Z,10.30
2023-02-22T19:43:49.966Z,10.20
2023-02-22T19:49:43.796Z,10.10
2023-02-22T19:55:38.209Z,10.10
2023-02-22T20:01:34.258Z,10.00
2023-02-22T20:07:27.623Z,9.90
2023-02-22T20:13:21.668Z,9.90
2023-02-22T20:19:16.432Z,9.90
2023-02-22T20:25:10.462Z,10.00
2023-02-22T20:31:03.868Z,9.90
2023-02-22T20:36:58.657Z,9.90
2023-02-22T20:42:52.061Z,9.80
2023-02-22T20:48:45.092Z,9.80
2023-02-22T20:54:39.884Z,9.70
2023-02-22T21:00:33.365Z,9.80
2023-02-22T21:06:26.895Z,9.70
2023-02-22T21:12:21.715Z,9.70
2023-02-22T21:18:16.022Z,9.70
2023-02-22T21:24:12.264Z,9.70
2023-02-22T21:30:08.521Z,9.70
2023-02-22T21:36:09.039Z,9.70
2023-02-22T21:42:02.541Z,9.60
2023-02-22T21:47:57.376Z,9.60
2023-02-22T21:53:53.857Z,9.60
2023-02-22T21:59:46.812Z,9.50
2023-02-22T22:05:45.567Z,9.60
2023-02-22T22:11:38.623Z,9.60
2023-02-22T22:17:33.398Z,9.50
2023-02-22T22:23:27.783Z,9.60
2023-02-22T22:29:21.528Z,9.60
2023-02-22T22:35:15.447Z,9.60
2023-02-22T22:41:13.154Z,9.60
2023-02-22T22:47:07.021Z,9.50
2023-02-22T22:53:00.427Z,9.60
2023-02-22T22:58:56.790Z,9.50
2023-02-22T23:04:52.034Z,9.50
2023-02-22T23:10:45.481Z,9.50
2023-02-22T23:16:40.076Z,9.50
2023-02-22T23:22:33.038Z,9.50
2023-02-22T23:28:26.524Z,9.40
2023-02-22T23:34:23.943Z,9.40
2023-02-22T23:40:18.542Z,9.40
2023-02-22T23:46:13.795Z,9.40
2023-02-22T23:52:09.574Z,9.30
2023-02-22T23:58:04.357Z,9.40
